Impacts TAF Board
For situational awareness. Not to be used for flight planning purposes.
IDs:

KGUP - Gallup Muni, NM, US

Issued at 1736 UTC 08 Aug 2020
Updated at 2009 UTC 08 Aug 2020
Potential Impact None Slight Moderate High
Time1953Z 08/21Z 08/22Z 08/23Z 09/00Z 09/01Z 09/02Z 09/03Z 09/04Z 09/05Z 09/06Z 09/07Z 09/08Z 09/09Z>>
Type OBS PRVL PRVL PRVL PRVL PRVL PRVL PRVL PRVL PRVL PRVL PRVL PRVL PRVL
VIS 10 >6 >6 >6 >6 >6 >6 >6 >6 >6 >6 >6 >6 >6
CIG 100 -- -- -- -- -- 100 100 100 100 100 100 100 100
Cover BKN SCT SCT SCT SCT SCT BKN BKN BKN BKN BKN BKN BKN BKN
FltCat VFR VFR VFR VFR VFR VFR VFR VFR VFR VFR VFR VFR VFR VFR
WX -- -- -- -- -- -- -- -- -- -- -- -- -- --
WDir VRB 260 260 260 260 260 VRB VRB VRB VRB VRB VRB VRB VRB
WSpd 5 10 10 10 10 10 4 4 4 4 4 4 4 4
WGst -- 18 18 18 18 18 -- -- -- -- -- -- -- --
Raw TAF
KGUP 081736Z 0818/0918 26007KT P6SM FEW120
  FM082100 26010G18KT P6SM SCT110
  FM090200 VRB04KT P6SM BKN100
  FM091700 26006KT P6SM SCT110


Raw METAR
KGUP 081953Z AUTO VRB05KT 10SM BKN100 29/02 A3030 RMK AO2 SLP081 T02940022
KGUP 081853Z AUTO 28005KT 10SM FEW110 28/03 A3031 RMK AO2 SLP086 T02780028
KGUP 081753Z AUTO 27008G18KT 10SM CLR 29/03 A3033 RMK AO2 SLP079 T02890033 10294 20089 58008

METAR Board
Radar Display
Forecast Discussion
For situational awareness. Not to be used for flight planning purposes.